createdAt,value
2023-03-29T00:02:55.577Z,0.50
2023-03-29T00:10:55.615Z,0.34
2023-03-29T00:18:55.935Z,0.50
2023-03-29T00:26:55.954Z,0.51
2023-03-29T00:34:55.729Z,0.50
2023-03-29T00:42:55.475Z,0.52
2023-03-29T00:50:55.215Z,0.51
2023-03-29T00:58:55.237Z,0.52
2023-03-29T01:06:55.548Z,0.53
2023-03-29T01:14:55.723Z,0.53
2023-03-29T01:22:55.498Z,0.52
2023-03-29T01:26:56.348Z,0.52
2023-03-29T01:30:56.229Z,0.52
2023-03-29T01:34:56.124Z,0.51
2023-03-29T01:38:56.015Z,0.51
2023-03-29T01:42:55.906Z,0.51
2023-03-29T01:46:55.764Z,0.51
2023-03-29T01:50:55.658Z,0.50
2023-03-29T01:54:55.567Z,0.50
2023-03-29T01:58:55.425Z,0.52
2023-03-29T02:02:55.406Z,0.53
2023-03-29T02:06:55.219Z,0.54
2023-03-29T02:10:55.181Z,0.54
2023-03-29T02:14:55.300Z,0.53
2023-03-29T02:18:55.234Z,0.55
2023-03-29T02:22:55.114Z,0.55
2023-03-29T02:26:55.013Z,0.54
2023-03-29T02:30:54.861Z,0.54
2023-03-29T02:34:54.730Z,0.54
2023-03-29T02:38:54.619Z,0.50
2023-03-29T02:42:54.598Z,0.51
2023-03-29T02:46:54.495Z,0.52
2023-03-29T02:50:54.356Z,0.54
2023-03-29T02:54:54.241Z,0.54
2023-03-29T02:58:54.155Z,0.56
2023-03-29T03:02:54.120Z,0.54
2023-03-29T03:06:53.926Z,0.55
2023-03-29T03:10:53.949Z,0.56
2023-03-29T03:14:54.110Z,0.55
2023-03-29T03:18:54.213Z,0.55
2023-03-29T03:22:54.317Z,0.55
2023-03-29T03:26:54.423Z,0.55
2023-03-29T03:30:54.538Z,0.56
2023-03-29T03:34:54.388Z,0.56
2023-03-29T03:38:54.268Z,0.55
2023-03-29T03:42:54.159Z,0.56
2023-03-29T03:46:54.038Z,0.55
2023-03-29T03:50:53.922Z,0.57
2023-03-29T03:54:53.818Z,0.53
2023-03-29T03:58:53.702Z,0.55
2023-03-29T04:02:53.936Z,0.55
2023-03-29T04:06:53.721Z,0.55
2023-03-29T04:10:53.606Z,0.57
2023-03-29T04:14:53.469Z,0.57
2023-03-29T04:18:53.519Z,0.56
2023-03-29T04:22:53.270Z,0.59
2023-03-29T04:26:53.161Z,0.57
2023-03-29T04:30:53.222Z,0.58
2023-03-29T04:34:53.110Z,0.58
2023-03-29T04:38:52.880Z,0.60
2023-03-29T04:42:52.759Z,0.59
2023-03-29T04:46:52.659Z,0.60
2023-03-29T04:50:52.491Z,0.61
2023-03-29T04:54:52.344Z,0.58
2023-03-29T04:58:52.355Z,0.58
2023-03-29T05:02:52.532Z,0.61
2023-03-29T05:06:52.958Z,0.60
2023-03-29T05:10:52.632Z,0.58
2023-03-29T05:14:52.738Z,0.58
2023-03-29T05:18:52.953Z,0.60
2023-03-29T05:22:52.521Z,0.61
2023-03-29T05:26:52.349Z,0.62
2023-03-29T05:30:52.434Z,0.60
2023-03-29T05:34:52.450Z,0.59
2023-03-29T05:38:52.488Z,0.63
2023-03-29T05:42:52.434Z,0.66
2023-03-29T05:46:52.437Z,0.68
2023-03-29T05:50:52.444Z,0.75
2023-03-29T05:54:52.224Z,0.84
2023-03-29T05:58:54.891Z,0.95
2023-03-29T06:02:52.078Z,1.05
2023-03-29T06:06:51.958Z,1.35
2023-03-29T06:10:52.059Z,1.62
2023-03-29T06:14:51.971Z,1.81
2023-03-29T06:18:51.448Z,2.07
2023-03-29T06:22:51.497Z,2.37
2023-03-29T06:26:51.530Z,2.64
2023-03-29T06:30:51.517Z,2.83
2023-03-29T06:34:51.018Z,2.39
2023-03-29T06:38:50.980Z,2.78
2023-03-29T06:42:51.062Z,2.79
2023-03-29T06:46:50.993Z,3.16
2023-03-29T06:50:50.965Z,3.43
2023-03-29T06:54:50.970Z,3.40
2023-03-29T06:58:51.001Z,3.43
2023-03-29T07:02:51.051Z,3.38
2023-03-29T07:06:50.980Z,3.31
2023-03-29T07:10:50.997Z,3.28
2023-03-29T07:14:50.997Z,3.10
2023-03-29T07:18:50.977Z,3.19
2023-03-29T07:22:51.586Z,3.08
2023-03-29T07:27:03.492Z,3.02
2023-03-29T07:30:51.660Z,3.02
2023-03-29T07:34:50.994Z,2.91
2023-03-29T07:38:51.010Z,2.77
2023-03-29T07:42:51.012Z,3.02
2023-03-29T07:46:51.037Z,3.16
2023-03-29T07:50:51.011Z,3.35
2023-03-29T07:54:50.984Z,3.40
2023-03-29T07:58:50.984Z,3.56
2023-03-29T08:02:51.092Z,3.48
2023-03-29T08:06:51.011Z,3.31
2023-03-29T08:10:50.994Z,3.27
2023-03-29T08:14:50.991Z,3.17
2023-03-29T08:18:52.607Z,3.07
2023-03-29T08:22:51.023Z,2.89
2023-03-29T08:26:50.748Z,2.84
2023-03-29T08:30:51.093Z,2.67
2023-03-29T08:34:50.490Z,2.64
2023-03-29T08:38:50.510Z,2.61
2023-03-29T08:42:50.511Z,2.49
2023-03-29T08:46:50.563Z,2.39
2023-03-29T08:50:50.505Z,2.32
2023-03-29T08:54:51.557Z,2.33
2023-03-29T08:58:50.518Z,2.21
2023-03-29T09:02:50.671Z,2.17
2023-03-29T09:06:50.580Z,2.11
2023-03-29T09:10:50.520Z,2.00
2023-03-29T09:14:51.036Z,2.09
2023-03-29T09:18:52.013Z,2.01
2023-03-29T09:22:50.935Z,1.94
2023-03-29T09:26:51.023Z,1.72
2023-03-29T09:30:51.539Z,0.54
2023-03-29T09:34:51.028Z,0.51
2023-03-29T09:38:51.173Z,0.67
2023-03-29T09:42:50.777Z,0.97
2023-03-29T09:46:51.037Z,1.40
2023-03-29T09:50:51.027Z,2.10
2023-03-29T09:54:51.076Z,2.74
2023-03-29T09:58:51.043Z,3.48
2023-03-29T10:02:51.562Z,4.21
2023-03-29T10:06:51.541Z,4.97
2023-03-29T10:10:51.577Z,5.91
2023-03-29T10:14:53.630Z,6.75
2023-03-29T10:18:50.962Z,7.60
2023-03-29T10:22:51.073Z,8.50
2023-03-29T10:26:51.078Z,9.27
2023-03-29T10:30:51.052Z,10.39
2023-03-29T10:34:50.557Z,10.79
2023-03-29T10:38:50.297Z,11.41
2023-03-29T10:42:50.580Z,12.28
2023-03-29T10:46:50.054Z,13.64
2023-03-29T10:50:50.055Z,13.66
2023-03-29T10:54:50.063Z,13.85
2023-03-29T10:58:50.080Z,13.17
2023-03-29T11:02:49.629Z,13.11
2023-03-29T11:06:49.562Z,12.98
2023-03-29T11:10:50.074Z,13.52
2023-03-29T11:14:49.733Z,13.48
2023-03-29T11:18:50.065Z,12.58
2023-03-29T11:22:50.074Z,11.60
2023-03-29T11:26:49.596Z,11.13
2023-03-29T11:30:49.481Z,10.18
2023-03-29T11:34:49.584Z,9.43
2023-03-29T11:38:49.573Z,9.26
2023-03-29T11:42:49.576Z,9.28
2023-03-29T11:46:49.229Z,9.03
2023-03-29T11:50:49.638Z,8.95
2023-03-29T11:54:49.127Z,10.31
2023-03-29T11:58:49.080Z,11.29
2023-03-29T12:02:49.250Z,12.15
2023-03-29T12:06:49.081Z,2.69
2023-03-29T12:10:49.615Z,2.54
2023-03-29T12:14:49.589Z,3.18
2023-03-29T12:18:49.635Z,3.91
2023-03-29T12:22:49.586Z,4.79
2023-03-29T12:26:49.588Z,5.57
2023-03-29T12:30:50.096Z,6.44
2023-03-29T12:34:49.628Z,7.34
2023-03-29T12:38:49.608Z,8.11
2023-03-29T12:42:49.625Z,9.13
2023-03-29T12:46:49.585Z,10.25
2023-03-29T12:50:50.148Z,11.36
2023-03-29T12:54:50.102Z,13.04
2023-03-29T12:58:50.132Z,3.08
2023-03-29T13:02:50.209Z,1.94
2023-03-29T13:06:51.661Z,2.19
2023-03-29T13:10:50.265Z,1.77
2023-03-29T13:14:50.614Z,2.41
2023-03-29T13:18:50.613Z,3.11
2023-03-29T13:22:50.144Z,4.01
2023-03-29T13:26:49.960Z,4.44
2023-03-29T13:30:50.184Z,4.91
2023-03-29T13:34:49.697Z,5.38
2023-03-29T13:38:49.644Z,5.92
2023-03-29T13:42:49.491Z,6.37
2023-03-29T13:46:49.684Z,6.59
2023-03-29T13:50:49.624Z,6.73
2023-03-29T13:54:49.718Z,6.82
2023-03-29T13:58:49.128Z,7.05
2023-03-29T14:02:49.613Z,6.27
2023-03-29T14:06:49.129Z,6.82
2023-03-29T14:10:49.160Z,5.88
2023-03-29T14:14:58.805Z,5.20
2023-03-29T14:18:49.132Z,5.10
2023-03-29T14:22:49.159Z,4.87
2023-03-29T14:26:48.732Z,4.61
2023-03-29T14:30:48.638Z,4.56
2023-03-29T14:34:48.639Z,4.27
2023-03-29T14:38:48.640Z,4.18
2023-03-29T14:42:48.792Z,4.10
2023-03-29T14:46:48.210Z,3.97
2023-03-29T14:50:48.113Z,3.78
2023-03-29T14:54:48.645Z,3.67
2023-03-29T14:58:48.335Z,3.55
2023-03-29T15:02:48.498Z,3.62
2023-03-29T15:06:48.650Z,3.52
2023-03-29T15:10:48.554Z,3.40
2023-03-29T15:14:48.703Z,3.36
2023-03-29T15:18:48.698Z,3.28
2023-03-29T15:22:49.166Z,3.21
2023-03-29T15:26:48.889Z,3.19
2023-03-29T15:30:57.358Z,3.07
2023-03-29T15:34:48.898Z,3.10
2023-03-29T15:38:48.786Z,3.11
2023-03-29T15:42:48.672Z,3.06
2023-03-29T15:46:48.666Z,3.03
2023-03-29T15:50:48.643Z,2.97
2023-03-29T15:54:48.708Z,2.93
2023-03-29T15:58:48.310Z,2.87
2023-03-29T16:02:48.362Z,2.84
2023-03-29T16:06:48.383Z,2.78
2023-03-29T16:10:48.488Z,2.75
2023-03-29T16:14:48.620Z,2.66
2023-03-29T16:18:48.871Z,2.68
2023-03-29T16:22:48.913Z,2.66
2023-03-29T16:26:49.038Z,2.59
2023-03-29T16:30:49.168Z,2.56
2023-03-29T16:34:49.313Z,2.82
2023-03-29T16:38:49.381Z,3.26
2023-03-29T16:42:49.348Z,3.57
2023-03-29T16:46:49.318Z,3.98
2023-03-29T16:50:49.503Z,4.42
2023-03-29T16:54:49.156Z,4.89
2023-03-29T16:58:49.123Z,5.11
2023-03-29T17:02:49.157Z,5.60
2023-03-29T17:06:49.286Z,6.15
2023-03-29T17:10:49.095Z,6.67
2023-03-29T17:14:48.992Z,7.33
2023-03-29T17:18:48.863Z,8.54
2023-03-29T17:22:48.804Z,8.31
2023-03-29T17:26:48.650Z,8.34
2023-03-29T17:30:48.599Z,8.52
2023-03-29T17:34:48.472Z,8.91
2023-03-29T17:38:48.535Z,8.77
2023-03-29T17:42:48.602Z,7.63
2023-03-29T17:46:48.609Z,6.86
2023-03-29T17:50:48.485Z,6.67
2023-03-29T17:54:48.464Z,6.47
2023-03-29T17:58:48.432Z,6.41
2023-03-29T18:02:48.551Z,5.87
2023-03-29T18:06:48.405Z,5.80
2023-03-29T18:10:48.414Z,5.52
2023-03-29T18:14:48.394Z,5.17
2023-03-29T18:18:48.409Z,5.00
2023-03-29T18:22:48.392Z,4.93
2023-03-29T18:26:48.415Z,4.69
2023-03-29T18:30:48.392Z,4.64
2023-03-29T18:34:48.412Z,4.50
2023-03-29T18:38:48.449Z,4.29
2023-03-29T18:42:48.516Z,4.40
2023-03-29T18:46:48.545Z,4.25
2023-03-29T18:50:48.606Z,4.12
2023-03-29T18:54:48.657Z,3.99
2023-03-29T18:58:48.738Z,3.84
2023-03-29T19:02:48.836Z,3.63
2023-03-29T19:06:48.838Z,3.57
2023-03-29T19:10:48.896Z,3.47
2023-03-29T19:14:48.988Z,3.32
2023-03-29T19:18:49.038Z,3.20
2023-03-29T19:22:49.112Z,3.16
2023-03-29T19:26:49.193Z,3.03
2023-03-29T19:30:49.420Z,2.95
2023-03-29T19:34:49.388Z,2.79
2023-03-29T19:38:49.491Z,2.74
2023-03-29T19:42:49.594Z,2.59
2023-03-29T19:46:49.744Z,2.49
2023-03-29T19:50:49.794Z,2.50
2023-03-29T19:54:49.877Z,2.46
2023-03-29T19:58:49.999Z,2.34
2023-03-29T20:02:50.215Z,2.28
2023-03-29T20:06:50.240Z,2.23
2023-03-29T20:10:50.337Z,2.14
2023-03-29T20:14:50.459Z,2.14
2023-03-29T20:18:50.608Z,2.06
2023-03-29T20:22:50.689Z,1.98
2023-03-29T20:26:50.830Z,1.90
2023-03-29T20:30:50.972Z,1.87
2023-03-29T20:34:51.104Z,1.79
2023-03-29T20:38:51.212Z,1.80
2023-03-29T20:42:51.354Z,1.73
2023-03-29T20:46:51.306Z,1.71
2023-03-29T20:50:51.217Z,1.69
2023-03-29T20:54:51.054Z,1.64
2023-03-29T20:58:50.960Z,1.63
2023-03-29T21:02:50.955Z,1.59
2023-03-29T21:06:50.788Z,1.59
2023-03-29T21:10:50.751Z,1.54
2023-03-29T21:14:50.894Z,1.53
2023-03-29T21:18:50.772Z,1.47
2023-03-29T21:22:50.636Z,1.48
2023-03-29T21:26:50.504Z,1.44
2023-03-29T21:30:50.397Z,1.40
2023-03-29T21:34:50.315Z,1.37
2023-03-29T21:38:50.268Z,1.37
2023-03-29T21:42:50.107Z,1.37
2023-03-29T21:46:50.263Z,1.36
2023-03-29T21:50:50.364Z,1.34
2023-03-29T21:54:50.266Z,1.31
2023-03-29T21:58:50.127Z,1.29
2023-03-29T22:02:50.069Z,1.29
2023-03-29T22:06:49.974Z,1.23
2023-03-29T22:10:49.929Z,1.23
2023-03-29T22:14:49.835Z,1.21
2023-03-29T22:18:49.828Z,1.20
2023-03-29T22:22:49.832Z,1.20
2023-03-29T22:26:49.994Z,1.18
2023-03-29T22:30:49.898Z,1.17
2023-03-29T22:34:49.784Z,1.16
2023-03-29T22:38:49.680Z,1.11
2023-03-29T22:42:49.632Z,1.10
2023-03-29T22:46:49.500Z,1.10
2023-03-29T22:50:49.379Z,1.08
2023-03-29T22:54:49.308Z,1.09
2023-03-29T22:58:49.479Z,1.06
2023-03-29T23:02:49.673Z,1.05
2023-03-29T23:56:49.401Z,0.50
